sensor_id;sensor_type;location;lat;lon;timestamp;temperature;humidity
53752;DHT22;41095;53.090;6.692;2022-09-24T00:01:28;13.40;99.90
53752;DHT22;41095;53.090;6.692;2022-09-24T00:03:56;13.40;99.90
53752;DHT22;41095;53.090;6.692;2022-09-24T00:06:23;13.50;99.90
53752;DHT22;41095;53.090;6.692;2022-09-24T00:08:51;13.50;99.90
53752;DHT22;41095;53.090;6.692;2022-09-24T00:11:19;13.40;99.90
53752;DHT22;41095;53.090;6.692;2022-09-24T00:13:47;13.50;99.90
53752;DHT22;41095;53.090;6.692;2022-09-24T00:16:15;13.40;99.90
53752;DHT22;41095;53.090;6.692;2022-09-24T00:18:42;13.50;99.90
53752;DHT22;41095;53.090;6.692;2022-09-24T00:21:23;13.50;99.90
53752;DHT22;41095;53.090;6.692;2022-09-24T00:23:51;13.50;99.90
53752;DHT22;41095;53.090;6.692;2022-09-24T00:26:18;13.50;99.90
53752;DHT22;41095;53.090;6.692;2022-09-24T00:29:03;13.50;99.90
53752;DHT22;41095;53.090;6.692;2022-09-24T00:31:28;13.50;99.90
53752;DHT22;41095;53.090;6.692;2022-09-24T00:33:54;13.50;99.90
53752;DHT22;41095;53.090;6.692;2022-09-24T00:36:21;13.50;99.90
53752;DHT22;41095;53.090;6.692;2022-09-24T00:38:51;13.50;99.90
53752;DHT22;41095;53.090;6.692;2022-09-24T00:41:19;13.60;99.90
53752;DHT22;41095;53.090;6.692;2022-09-24T00:43:45;13.50;99.90
53752;DHT22;41095;53.090;6.692;2022-09-24T00:48:45;13.50;99.90
53752;DHT22;41095;53.090;6.692;2022-09-24T00:51:14;13.50;99.90
53752;DHT22;41095;53.090;6.692;2022-09-24T00:53:41;13.60;99.90
53752;DHT22;41095;53.090;6.692;2022-09-24T00:56:10;13.50;99.90
53752;DHT22;41095;53.090;6.692;2022-09-24T00:58:43;13.50;99.90
53752;DHT22;41095;53.090;6.692;2022-09-24T01:01:10;13.60;99.90
53752;DHT22;41095;53.090;6.692;2022-09-24T01:03:37;13.60;99.90
53752;DHT22;41095;53.090;6.692;2022-09-24T01:06:06;13.60;99.90
53752;DHT22;41095;53.090;6.692;2022-09-24T01:08:32;13.60;99.90
53752;DHT22;41095;53.090;6.692;2022-09-24T01:14:02;13.60;99.90
53752;DHT22;41095;53.090;6.692;2022-09-24T01:22:08;13.60;99.90
53752;DHT22;41095;53.090;6.692;2022-09-24T01:27:51;13.60;99.90
53752;DHT22;41095;53.090;6.692;2022-09-24T01:30:23;13.60;99.90
53752;DHT22;41095;53.090;6.692;2022-09-24T01:32:59;13.60;99.90
53752;DHT22;41095;53.090;6.692;2022-09-24T01:35:44;13.60;99.90
53752;DHT22;41095;53.090;6.692;2022-09-24T01:38:21;13.70;99.90
53752;DHT22;41095;53.090;6.692;2022-09-24T01:40:49;13.60;99.90
53752;DHT22;41095;53.090;6.692;2022-09-24T01:43:23;13.70;99.90
53752;DHT22;41095;53.090;6.692;2022-09-24T01:45:49;13.70;99.90
53752;DHT22;41095;53.090;6.692;2022-09-24T01:48:16;13.60;99.90
53752;DHT22;41095;53.090;6.692;2022-09-24T01:50:53;13.70;99.90
53752;DHT22;41095;53.090;6.692;2022-09-24T01:53:28;13.60;99.90
53752;DHT22;41095;53.090;6.692;2022-09-24T01:56:01;13.70;99.90
53752;DHT22;41095;53.090;6.692;2022-09-24T01:58:42;13.70;99.90
53752;DHT22;41095;53.090;6.692;2022-09-24T02:01:16;13.70;99.90
53752;DHT22;41095;53.090;6.692;2022-09-24T02:03:52;13.70;99.90
53752;DHT22;41095;53.090;6.692;2022-09-24T02:06:34;13.70;99.90
53752;DHT22;41095;53.090;6.692;2022-09-24T02:09:01;13.50;99.90
53752;DHT22;41095;53.090;6.692;2022-09-24T02:11:27;13.70;99.90
53752;DHT22;41095;53.090;6.692;2022-09-24T02:14:03;13.70;99.90
53752;DHT22;41095;53.090;6.692;2022-09-24T02:16:43;13.70;99.90
53752;DHT22;41095;53.090;6.692;2022-09-24T02:19:14;13.70;99.90
53752;DHT22;41095;53.090;6.692;2022-09-24T02:21:43;13.70;99.90
53752;DHT22;41095;53.090;6.692;2022-09-24T02:24:14;13.70;99.90
53752;DHT22;41095;53.090;6.692;2022-09-24T02:26:41;13.70;99.90
53752;DHT22;41095;53.090;6.692;2022-09-24T02:29:07;13.80;99.90
53752;DHT22;41095;53.090;6.692;2022-09-24T02:31:37;13.70;99.90
53752;DHT22;41095;53.090;6.692;2022-09-24T02:34:06;13.70;99.90
53752;DHT22;41095;53.090;6.692;2022-09-24T02:39:12;13.70;99.90
53752;DHT22;41095;53.090;6.692;2022-09-24T02:41:38;13.70;99.90
53752;DHT22;41095;53.090;6.692;2022-09-24T02:44:05;13.70;99.90
53752;DHT22;41095;53.090;6.692;2022-09-24T02:46:30;13.70;99.90
53752;DHT22;41095;53.090;6.692;2022-09-24T02:48:56;13.70;99.90
53752;DHT22;41095;53.090;6.692;2022-09-24T02:51:22;13.70;99.90
53752;DHT22;41095;53.090;6.692;2022-09-24T02:53:47;13.70;99.90
53752;DHT22;41095;53.090;6.692;2022-09-24T02:56:13;13.80;99.90
53752;DHT22;41095;53.090;6.692;2022-09-24T02:58:39;13.80;99.90
53752;DHT22;41095;53.090;6.692;2022-09-24T03:01:05;13.70;99.90
53752;DHT22;41095;53.090;6.692;2022-09-24T03:03:31;13.70;99.90
53752;DHT22;41095;53.090;6.692;2022-09-24T03:05:57;13.80;99.90
53752;DHT22;41095;53.090;6.692;2022-09-24T03:08:23;13.80;99.90
53752;DHT22;41095;53.090;6.692;2022-09-24T03:10:50;13.80;99.90
53752;DHT22;41095;53.090;6.692;2022-09-24T03:13:16;13.80;99.90
53752;DHT22;41095;53.090;6.692;2022-09-24T03:15:44;13.80;99.90
53752;DHT22;41095;53.090;6.692;2022-09-24T03:18:10;13.80;99.90
53752;DHT22;41095;53.090;6.692;2022-09-24T03:20:36;13.90;99.90
53752;DHT22;41095;53.090;6.692;2022-09-24T03:23:01;13.90;99.90
53752;DHT22;41095;53.090;6.692;2022-09-24T03:25:27;13.80;99.90
53752;DHT22;41095;53.090;6.692;2022-09-24T03:27:53;13.80;99.90
53752;DHT22;41095;53.090;6.692;2022-09-24T03:30:19;13.80;99.90
53752;DHT22;41095;53.090;6.692;2022-09-24T03:33:03;13.90;99.90
53752;DHT22;41095;53.090;6.692;2022-09-24T03:35:29;13.90;99.90
53752;DHT22;41095;53.090;6.692;2022-09-24T03:37:54;13.80;99.90
53752;DHT22;41095;53.090;6.692;2022-09-24T03:40:20;13.80;99.90
53752;DHT22;41095;53.090;6.692;2022-09-24T03:42:46;13.90;99.90
53752;DHT22;41095;53.090;6.692;2022-09-24T03:45:11;13.90;99.90
53752;DHT22;41095;53.090;6.692;2022-09-24T03:47:37;13.90;99.90
53752;DHT22;41095;53.090;6.692;2022-09-24T03:50:03;13.90;99.90
53752;DHT22;41095;53.090;6.692;2022-09-24T03:52:29;13.90;99.90
53752;DHT22;41095;53.090;6.692;2022-09-24T03:54:55;13.90;99.90
53752;DHT22;41095;53.090;6.692;2022-09-24T03:57:20;14.00;99.90
53752;DHT22;41095;53.090;6.692;2022-09-24T03:59:46;14.00;99.90
53752;DHT22;41095;53.090;6.692;2022-09-24T04:02:12;14.00;99.90
53752;DHT22;41095;53.090;6.692;2022-09-24T04:04:38;14.00;99.90
53752;DHT22;41095;53.090;6.692;2022-09-24T04:07:04;14.00;99.90
53752;DHT22;41095;53.090;6.692;2022-09-24T04:09:30;14.00;99.90
53752;DHT22;41095;53.090;6.692;2022-09-24T04:11:56;14.00;99.90
53752;DHT22;41095;53.090;6.692;2022-09-24T04:14:23;14.00;99.90
53752;DHT22;41095;53.090;6.692;2022-09-24T04:16:49;14.00;99.90
53752;DHT22;41095;53.090;6.692;2022-09-24T04:19:15;14.00;99.90
53752;DHT22;41095;53.090;6.692;2022-09-24T04:21:41;14.10;99.90
53752;DHT22;41095;53.090;6.692;2022-09-24T04:24:07;14.10;99.90
53752;DHT22;41095;53.090;6.692;2022-09-24T04:26:33;14.00;99.90
53752;DHT22;41095;53.090;6.692;2022-09-24T04:28:59;14.10;99.90
53752;DHT22;41095;53.090;6.692;2022-09-24T04:31:25;14.10;99.90
53752;DHT22;41095;53.090;6.692;2022-09-24T04:33:54;14.10;99.90
53752;DHT22;41095;53.090;6.692;2022-09-24T04:36:19;14.10;99.90
53752;DHT22;41095;53.090;6.692;2022-09-24T04:38:45;14.00;99.90
53752;DHT22;41095;53.090;6.692;2022-09-24T04:41:12;14.00;99.90
53752;DHT22;41095;53.090;6.692;2022-09-24T04:43:40;14.00;99.90
53752;DHT22;41095;53.090;6.692;2022-09-24T04:46:06;14.10;99.90
53752;DHT22;41095;53.090;6.692;2022-09-24T04:48:34;14.00;99.90
53752;DHT22;41095;53.090;6.692;2022-09-24T04:51:03;14.00;99.90
53752;DHT22;41095;53.090;6.692;2022-09-24T04:53:31;14.00;99.90
53752;DHT22;41095;53.090;6.692;2022-09-24T04:55:57;14.00;99.90
53752;DHT22;41095;53.090;6.692;2022-09-24T04:58:25;14.00;99.90
53752;DHT22;41095;53.090;6.692;2022-09-24T05:00:51;14.00;99.90
53752;DHT22;41095;53.090;6.692;2022-09-24T05:03:18;14.00;99.90
53752;DHT22;41095;53.090;6.692;2022-09-24T05:05:46;14.00;99.90
53752;DHT22;41095;53.090;6.692;2022-09-24T05:08:12;14.00;99.90
53752;DHT22;41095;53.090;6.692;2022-09-24T05:10:38;13.90;99.90
53752;DHT22;41095;53.090;6.692;2022-09-24T05:13:04;13.90;99.90
53752;DHT22;41095;53.090;6.692;2022-09-24T05:15:30;13.90;99.90
53752;DHT22;41095;53.090;6.692;2022-09-24T05:17:56;13.90;99.90
53752;DHT22;41095;53.090;6.692;2022-09-24T05:20:22;13.90;99.90
53752;DHT22;41095;53.090;6.692;2022-09-24T05:22:48;13.90;99.90
53752;DHT22;41095;53.090;6.692;2022-09-24T05:25:16;13.90;99.90
53752;DHT22;41095;53.090;6.692;2022-09-24T05:27:54;14.00;99.90
53752;DHT22;41095;53.090;6.692;2022-09-24T05:30:22;14.00;99.90
53752;DHT22;41095;53.090;6.692;2022-09-24T05:32:48;14.00;99.90
53752;DHT22;41095;53.090;6.692;2022-09-24T05:35:21;14.00;99.90
53752;DHT22;41095;53.090;6.692;2022-09-24T05:37:47;14.00;99.90
53752;DHT22;41095;53.090;6.692;2022-09-24T05:40:14;14.00;99.90
53752;DHT22;41095;53.090;6.692;2022-09-24T05:43:00;14.00;99.90
53752;DHT22;41095;53.090;6.692;2022-09-24T05:45:26;14.10;99.90
53752;DHT22;41095;53.090;6.692;2022-09-24T05:47:52;14.10;99.90
53752;DHT22;41095;53.090;6.692;2022-09-24T05:50:17;14.00;99.90
53752;DHT22;41095;53.090;6.692;2022-09-24T05:52:43;14.00;99.90
53752;DHT22;41095;53.090;6.692;2022-09-24T05:55:09;14.00;99.90
53752;DHT22;41095;53.090;6.692;2022-09-24T05:57:35;14.00;99.90
53752;DHT22;41095;53.090;6.692;2022-09-24T06:00:01;14.10;99.90
53752;DHT22;41095;53.090;6.692;2022-09-24T06:02:27;14.10;99.90
53752;DHT22;41095;53.090;6.692;2022-09-24T06:04:53;14.00;99.90
53752;DHT22;41095;53.090;6.692;2022-09-24T06:07:19;14.10;99.90
53752;DHT22;41095;53.090;6.692;2022-09-24T06:09:45;14.10;99.90
53752;DHT22;41095;53.090;6.692;2022-09-24T06:12:12;14.10;99.90
53752;DHT22;41095;53.090;6.692;2022-09-24T06:14:39;14.10;99.90
53752;DHT22;41095;53.090;6.692;2022-09-24T06:17:07;14.10;99.90
53752;DHT22;41095;53.090;6.692;2022-09-24T06:19:33;14.10;99.90
53752;DHT22;41095;53.090;6.692;2022-09-24T06:21:59;14.20;99.90
53752;DHT22;41095;53.090;6.692;2022-09-24T06:24:24;14.20;99.90
53752;DHT22;41095;53.090;6.692;2022-09-24T06:26:51;14.20;99.90
53752;DHT22;41095;53.090;6.692;2022-09-24T06:29:16;14.20;99.90
53752;DHT22;41095;53.090;6.692;2022-09-24T06:31:42;14.30;99.90
53752;DHT22;41095;53.090;6.692;2022-09-24T06:34:09;14.20;99.90
53752;DHT22;41095;53.090;6.692;2022-09-24T06:36:35;14.20;99.90
53752;DHT22;41095;53.090;6.692;2022-09-24T06:39:00;14.20;99.90
53752;DHT22;41095;53.090;6.692;2022-09-24T06:41:26;14.30;99.90
53752;DHT22;41095;53.090;6.692;2022-09-24T06:43:55;14.30;99.90
53752;DHT22;41095;53.090;6.692;2022-09-24T06:46:21;14.40;99.90
53752;DHT22;41095;53.090;6.692;2022-09-24T06:48:50;14.40;99.90
53752;DHT22;41095;53.090;6.692;2022-09-24T06:51:16;14.40;99.90
53752;DHT22;41095;53.090;6.692;2022-09-24T06:53:42;14.40;99.90
53752;DHT22;41095;53.090;6.692;2022-09-24T06:56:07;14.40;99.90
53752;DHT22;41095;53.090;6.692;2022-09-24T06:58:33;14.40;99.90
53752;DHT22;41095;53.090;6.692;2022-09-24T07:01:00;14.50;99.90
53752;DHT22;41095;53.090;6.692;2022-09-24T07:03:29;14.40;99.90
53752;DHT22;41095;53.090;6.692;2022-09-24T07:05:58;14.50;99.90
53752;DHT22;41095;53.090;6.692;2022-09-24T07:08:23;14.50;99.90
53752;DHT22;41095;53.090;6.692;2022-09-24T07:10:49;14.60;99.90
53752;DHT22;41095;53.090;6.692;2022-09-24T07:13:17;14.60;99.90
53752;DHT22;41095;53.090;6.692;2022-09-24T07:15:43;14.60;99.90
53752;DHT22;41095;53.090;6.692;2022-09-24T07:18:10;14.60;99.90
53752;DHT22;41095;53.090;6.692;2022-09-24T07:20:36;14.50;99.90
53752;DHT22;41095;53.090;6.692;2022-09-24T07:23:03;14.50;99.90
53752;DHT22;41095;53.090;6.692;2022-09-24T07:25:29;14.50;99.90
53752;DHT22;41095;53.090;6.692;2022-09-24T07:27:58;14.40;99.90
53752;DHT22;41095;53.090;6.692;2022-09-24T07:30:24;14.50;99.90
53752;DHT22;41095;53.090;6.692;2022-09-24T07:32:54;14.40;99.90
53752;DHT22;41095;53.090;6.692;2022-09-24T07:35:19;14.40;99.90
53752;DHT22;41095;53.090;6.692;2022-09-24T07:37:45;14.50;99.90
53752;DHT22;41095;53.090;6.692;2022-09-24T07:40:11;14.50;99.90
53752;DHT22;41095;53.090;6.692;2022-09-24T07:42:36;14.50;99.90
53752;DHT22;41095;53.090;6.692;2022-09-24T07:45:03;14.50;99.90
53752;DHT22;41095;53.090;6.692;2022-09-24T07:47:29;14.50;99.90
53752;DHT22;41095;53.090;6.692;2022-09-24T07:49:55;14.50;99.90
53752;DHT22;41095;53.090;6.692;2022-09-24T07:52:20;14.40;99.90
53752;DHT22;41095;53.090;6.692;2022-09-24T07:54:46;14.50;99.90
53752;DHT22;41095;53.090;6.692;2022-09-24T07:57:12;14.40;99.90
53752;DHT22;41095;53.090;6.692;2022-09-24T07:59:38;14.40;99.90
53752;DHT22;41095;53.090;6.692;2022-09-24T08:02:14;14.40;99.90
53752;DHT22;41095;53.090;6.692;2022-09-24T08:04:41;14.30;99.90
53752;DHT22;41095;53.090;6.692;2022-09-24T08:07:07;14.30;99.90
53752;DHT22;41095;53.090;6.692;2022-09-24T08:09:32;14.30;99.90
53752;DHT22;41095;53.090;6.692;2022-09-24T08:11:58;14.30;99.90
53752;DHT22;41095;53.090;6.692;2022-09-24T08:14:24;14.30;99.90
53752;DHT22;41095;53.090;6.692;2022-09-24T08:16:50;14.30;99.90
53752;DHT22;41095;53.090;6.692;2022-09-24T08:19:15;14.30;99.90
53752;DHT22;41095;53.090;6.692;2022-09-24T08:21:41;14.30;99.90
53752;DHT22;41095;53.090;6.692;2022-09-24T08:24:07;14.30;99.90
53752;DHT22;41095;53.090;6.692;2022-09-24T08:26:33;14.30;99.90
53752;DHT22;41095;53.090;6.692;2022-09-24T08:28:59;14.30;99.90
53752;DHT22;41095;53.090;6.692;2022-09-24T08:31:24;14.40;99.90
53752;DHT22;41095;53.090;6.692;2022-09-24T08:33:50;14.40;99.90
53752;DHT22;41095;53.090;6.692;2022-09-24T08:36:16;14.40;99.90
53752;DHT22;41095;53.090;6.692;2022-09-24T08:38:43;14.50;99.90
53752;DHT22;41095;53.090;6.692;2022-09-24T08:46:43;14.60;99.90
53752;DHT22;41095;53.090;6.692;2022-09-24T08:49:38;14.60;99.90
53752;DHT22;41095;53.090;6.692;2022-09-24T08:54:58;14.70;99.90
53752;DHT22;41095;53.090;6.692;2022-09-24T08:57:26;14.90;99.90
53752;DHT22;41095;53.090;6.692;2022-09-24T08:59:53;14.80;99.90
53752;DHT22;41095;53.090;6.692;2022-09-24T09:07:43;14.70;99.90
53752;DHT22;41095;53.090;6.692;2022-09-24T09:10:40;14.70;99.90
53752;DHT22;41095;53.090;6.692;2022-09-24T09:13:15;14.70;99.90
53752;DHT22;41095;53.090;6.692;2022-09-24T09:15:58;14.80;99.90
53752;DHT22;41095;53.090;6.692;2022-09-24T09:18:32;14.70;99.90
53752;DHT22;41095;53.090;6.692;2022-09-24T09:21:15;14.80;99.90
53752;DHT22;41095;53.090;6.692;2022-09-24T09:23:47;14.70;99.90
53752;DHT22;41095;53.090;6.692;2022-09-24T09:26:14;14.70;99.90
53752;DHT22;41095;53.090;6.692;2022-09-24T09:28:43;14.60;99.90
53752;DHT22;41095;53.090;6.692;2022-09-24T09:42:03;14.60;99.90
53752;DHT22;41095;53.090;6.692;2022-09-24T09:44:38;14.60;99.90
53752;DHT22;41095;53.090;6.692;2022-09-24T09:47:33;14.60;99.90
53752;DHT22;41095;53.090;6.692;2022-09-24T09:50:12;14.60;99.90
53752;DHT22;41095;53.090;6.692;2022-09-24T09:52:42;14.60;99.90
53752;DHT22;41095;53.090;6.692;2022-09-24T09:55:24;14.60;99.90
53752;DHT22;41095;53.090;6.692;2022-09-24T09:57:50;14.60;99.90
53752;DHT22;41095;53.090;6.692;2022-09-24T10:00:25;14.50;99.90
53752;DHT22;41095;53.090;6.692;2022-09-24T10:02:51;14.50;99.90
53752;DHT22;41095;53.090;6.692;2022-09-24T10:05:20;14.40;99.90
53752;DHT22;41095;53.090;6.692;2022-09-24T10:07:47;14.40;99.90
53752;DHT22;41095;53.090;6.692;2022-09-24T10:10:21;14.30;99.90
53752;DHT22;41095;53.090;6.692;2022-09-24T10:13:07;14.30;99.90
53752;DHT22;41095;53.090;6.692;2022-09-24T10:15:51;14.40;99.90
53752;DHT22;41095;53.090;6.692;2022-09-24T10:18:45;14.50;99.90
53752;DHT22;41095;53.090;6.692;2022-09-24T10:21:11;14.40;99.90
53752;DHT22;41095;53.090;6.692;2022-09-24T10:23:42;14.50;99.90
53752;DHT22;41095;53.090;6.692;2022-09-24T10:26:09;14.50;99.90
53752;DHT22;41095;53.090;6.692;2022-09-24T10:28:46;14.50;99.90
53752;DHT22;41095;53.090;6.692;2022-09-24T10:31:33;14.60;99.90
53752;DHT22;41095;53.090;6.692;2022-09-24T10:34:00;14.70;99.90
53752;DHT22;41095;53.090;6.692;2022-09-24T10:36:30;14.70;99.90
53752;DHT22;41095;53.090;6.692;2022-09-24T10:39:14;14.80;99.90
53752;DHT22;41095;53.090;6.692;2022-09-24T10:41:47;14.80;99.90
53752;DHT22;41095;53.090;6.692;2022-09-24T10:44:14;14.70;99.90
53752;DHT22;41095;53.090;6.692;2022-09-24T10:46:53;14.80;99.90
53752;DHT22;41095;53.090;6.692;2022-09-24T10:50:04;14.80;99.90
53752;DHT22;41095;53.090;6.692;2022-09-24T11:11:52;14.80;99.90
53752;DHT22;41095;53.090;6.692;2022-09-24T11:14:35;14.80;99.90
53752;DHT22;41095;53.090;6.692;2022-09-24T11:25:41;14.70;99.90
53752;DHT22;41095;53.090;6.692;2022-09-24T11:34:14;14.60;99.90
53752;DHT22;41095;53.090;6.692;2022-09-24T11:37:02;14.60;99.90
53752;DHT22;41095;53.090;6.692;2022-09-24T11:42:27;14.60;99.90
53752;DHT22;41095;53.090;6.692;2022-09-24T11:45:17;14.70;99.90
53752;DHT22;41095;53.090;6.692;2022-09-24T11:50:31;14.70;99.90
53752;DHT22;41095;53.090;6.692;2022-09-24T11:53:02;14.70;99.90
53752;DHT22;41095;53.090;6.692;2022-09-24T11:55:38;14.70;99.90
53752;DHT22;41095;53.090;6.692;2022-09-24T11:58:17;14.60;99.90
53752;DHT22;41095;53.090;6.692;2022-09-24T12:03:37;14.60;99.90
53752;DHT22;41095;53.090;6.692;2022-09-24T12:06:20;14.60;99.90
53752;DHT22;41095;53.090;6.692;2022-09-24T12:08:53;14.50;99.90
53752;DHT22;41095;53.090;6.692;2022-09-24T12:11:33;14.40;99.90
53752;DHT22;41095;53.090;6.692;2022-09-24T12:14:17;14.50;99.90
53752;DHT22;41095;53.090;6.692;2022-09-24T12:16:44;14.40;99.90
53752;DHT22;41095;53.090;6.692;2022-09-24T12:19:19;14.40;99.90
53752;DHT22;41095;53.090;6.692;2022-09-24T12:21:49;14.50;99.90
53752;DHT22;41095;53.090;6.692;2022-09-24T12:24:36;14.50;99.90
53752;DHT22;41095;53.090;6.692;2022-09-24T12:27:13;14.60;99.90
53752;DHT22;41095;53.090;6.692;2022-09-24T12:29:53;14.50;99.90
53752;DHT22;41095;53.090;6.692;2022-09-24T12:38:32;14.40;99.90
53752;DHT22;41095;53.090;6.692;2022-09-24T12:41:30;14.30;99.90
53752;DHT22;41095;53.090;6.692;2022-09-24T12:47:15;14.20;99.90
53752;DHT22;41095;53.090;6.692;2022-09-24T12:49:41;14.10;99.90
53752;DHT22;41095;53.090;6.692;2022-09-24T12:52:24;14.20;99.90
53752;DHT22;41095;53.090;6.692;2022-09-24T12:55:00;14.10;99.90
53752;DHT22;41095;53.090;6.692;2022-09-24T12:57:34;14.20;99.90
53752;DHT22;41095;53.090;6.692;2022-09-24T13:00:31;14.20;99.90
53752;DHT22;41095;53.090;6.692;2022-09-24T13:02:50;14.20;99.90
53752;DHT22;41095;53.090;6.692;2022-09-24T13:08:00;14.10;99.90
53752;DHT22;41095;53.090;6.692;2022-09-24T13:10:31;14.10;99.90
53752;DHT22;41095;53.090;6.692;2022-09-24T13:12:59;14.20;99.90
53752;DHT22;41095;53.090;6.692;2022-09-24T13:15:27;14.00;99.90
53752;DHT22;41095;53.090;6.692;2022-09-24T13:20:38;14.20;99.90
53752;DHT22;41095;53.090;6.692;2022-09-24T13:26:01;14.10;99.90
53752;DHT22;41095;53.090;6.692;2022-09-24T13:28:52;14.10;99.90
53752;DHT22;41095;53.090;6.692;2022-09-24T13:39:35;14.10;99.90
53752;DHT22;41095;53.090;6.692;2022-09-24T13:42:19;14.10;99.90
53752;DHT22;41095;53.090;6.692;2022-09-24T13:44:48;14.10;99.90
53752;DHT22;41095;53.090;6.692;2022-09-24T13:47:37;14.10;99.90
53752;DHT22;41095;53.090;6.692;2022-09-24T13:52:57;14.10;99.90
53752;DHT22;41095;53.090;6.692;2022-09-24T13:55:30;14.10;99.90
53752;DHT22;41095;53.090;6.692;2022-09-24T13:57:56;14.10;99.90
53752;DHT22;41095;53.090;6.692;2022-09-24T14:00:24;14.10;99.90
53752;DHT22;41095;53.090;6.692;2022-09-24T14:05:27;14.10;99.90
53752;DHT22;41095;53.090;6.692;2022-09-24T14:08:06;14.10;99.90
53752;DHT22;41095;53.090;6.692;2022-09-24T14:10:32;14.10;99.90
53752;DHT22;41095;53.090;6.692;2022-09-24T14:13:24;14.10;99.90
53752;DHT22;41095;53.090;6.692;2022-09-24T14:18:15;14.00;99.90
53752;DHT22;41095;53.090;6.692;2022-09-24T14:20:41;14.00;99.90
53752;DHT22;41095;53.090;6.692;2022-09-24T14:23:17;14.00;99.90
53752;DHT22;41095;53.090;6.692;2022-09-24T14:25:45;13.90;99.90
53752;DHT22;41095;53.090;6.692;2022-09-24T14:28:12;13.80;99.90
53752;DHT22;41095;53.090;6.692;2022-09-24T14:30:48;13.80;99.90
53752;DHT22;41095;53.090;6.692;2022-09-24T14:33:17;13.70;99.90
53752;DHT22;41095;53.090;6.692;2022-09-24T14:35:47;13.80;99.90
53752;DHT22;41095;53.090;6.692;2022-09-24T14:38:17;13.80;99.90
53752;DHT22;41095;53.090;6.692;2022-09-24T14:40:52;13.90;99.90
53752;DHT22;41095;53.090;6.692;2022-09-24T14:46:01;14.10;99.90
53752;DHT22;41095;53.090;6.692;2022-09-24T14:48:31;14.10;99.90
53752;DHT22;41095;53.090;6.692;2022-09-24T14:50:57;14.10;99.90
53752;DHT22;41095;53.090;6.692;2022-09-24T14:53:36;14.10;99.90
53752;DHT22;41095;53.090;6.692;2022-09-24T14:56:35;14.10;99.90
53752;DHT22;41095;53.090;6.692;2022-09-24T14:59:24;14.10;99.90
53752;DHT22;41095;53.090;6.692;2022-09-24T15:02:02;14.10;99.90
53752;DHT22;41095;53.090;6.692;2022-09-24T15:04:28;14.10;99.90
53752;DHT22;41095;53.090;6.692;2022-09-24T15:06:54;14.10;99.90
53752;DHT22;41095;53.090;6.692;2022-09-24T15:09:28;14.10;99.90
53752;DHT22;41095;53.090;6.692;2022-09-24T15:11:54;14.10;99.90
53752;DHT22;41095;53.090;6.692;2022-09-24T15:14:31;14.10;99.90
53752;DHT22;41095;53.090;6.692;2022-09-24T15:17:08;14.00;99.90
53752;DHT22;41095;53.090;6.692;2022-09-24T15:19:35;13.90;99.90
53752;DHT22;41095;53.090;6.692;2022-09-24T15:22:02;13.90;99.90
53752;DHT22;41095;53.090;6.692;2022-09-24T15:24:27;13.80;99.90
53752;DHT22;41095;53.090;6.692;2022-09-24T15:27:27;13.70;99.90
53752;DHT22;41095;53.090;6.692;2022-09-24T15:29:57;13.70;99.90
53752;DHT22;41095;53.090;6.692;2022-09-24T15:32:26;13.70;99.90
53752;DHT22;41095;53.090;6.692;2022-09-24T15:34:52;13.70;99.90
53752;DHT22;41095;53.090;6.692;2022-09-24T15:37:21;13.70;99.90
53752;DHT22;41095;53.090;6.692;2022-09-24T15:39:48;13.80;99.90
53752;DHT22;41095;53.090;6.692;2022-09-24T15:42:20;13.90;99.90
53752;DHT22;41095;53.090;6.692;2022-09-24T15:44:46;13.90;99.90
53752;DHT22;41095;53.090;6.692;2022-09-24T15:47:13;13.90;99.90
53752;DHT22;41095;53.090;6.692;2022-09-24T15:49:39;14.00;99.90
53752;DHT22;41095;53.090;6.692;2022-09-24T15:52:22;13.90;99.90
53752;DHT22;41095;53.090;6.692;2022-09-24T15:54:59;13.90;99.90
53752;DHT22;41095;53.090;6.692;2022-09-24T15:57:26;13.80;99.90
53752;DHT22;41095;53.090;6.692;2022-09-24T15:59:52;13.80;99.90
53752;DHT22;41095;53.090;6.692;2022-09-24T16:02:24;13.80;99.90
53752;DHT22;41095;53.090;6.692;2022-09-24T16:04:51;13.70;99.90
53752;DHT22;41095;53.090;6.692;2022-09-24T16:07:17;13.60;99.90
53752;DHT22;41095;53.090;6.692;2022-09-24T16:09:43;13.70;99.90
53752;DHT22;41095;53.090;6.692;2022-09-24T16:12:14;13.60;99.90
53752;DHT22;41095;53.090;6.692;2022-09-24T16:14:41;13.60;99.90
53752;DHT22;41095;53.090;6.692;2022-09-24T16:17:07;13.60;99.90
53752;DHT22;41095;53.090;6.692;2022-09-24T16:19:32;13.60;99.90
53752;DHT22;41095;53.090;6.692;2022-09-24T16:21:58;13.60;99.90
53752;DHT22;41095;53.090;6.692;2022-09-24T16:24:25;13.60;99.90
53752;DHT22;41095;53.090;6.692;2022-09-24T16:26:51;13.60;99.90
53752;DHT22;41095;53.090;6.692;2022-09-24T16:29:17;13.60;99.90
53752;DHT22;41095;53.090;6.692;2022-09-24T16:31:44;13.60;99.90
53752;DHT22;41095;53.090;6.692;2022-09-24T16:34:13;13.70;99.90
53752;DHT22;41095;53.090;6.692;2022-09-24T16:36:38;13.70;99.90
53752;DHT22;41095;53.090;6.692;2022-09-24T16:39:04;13.80;99.90
53752;DHT22;41095;53.090;6.692;2022-09-24T16:41:30;13.80;99.90
53752;DHT22;41095;53.090;6.692;2022-09-24T16:43:59;13.80;99.90
53752;DHT22;41095;53.090;6.692;2022-09-24T16:46:26;13.80;99.90
53752;DHT22;41095;53.090;6.692;2022-09-24T16:48:52;13.80;99.90
53752;DHT22;41095;53.090;6.692;2022-09-24T16:51:18;13.80;99.90
53752;DHT22;41095;53.090;6.692;2022-09-24T16:53:44;13.80;99.90
53752;DHT22;41095;53.090;6.692;2022-09-24T16:56:13;13.80;99.90
53752;DHT22;41095;53.090;6.692;2022-09-24T16:58:40;13.80;99.90
53752;DHT22;41095;53.090;6.692;2022-09-24T17:01:09;13.80;99.90
53752;DHT22;41095;53.090;6.692;2022-09-24T17:03:36;13.80;99.90
53752;DHT22;41095;53.090;6.692;2022-09-24T17:06:02;13.80;99.90
53752;DHT22;41095;53.090;6.692;2022-09-24T17:08:34;13.80;99.90
53752;DHT22;41095;53.090;6.692;2022-09-24T17:11:18;13.80;99.90
53752;DHT22;41095;53.090;6.692;2022-09-24T17:13:44;13.80;99.90
53752;DHT22;41095;53.090;6.692;2022-09-24T17:16:15;13.80;99.90
53752;DHT22;41095;53.090;6.692;2022-09-24T17:18:41;13.80;99.90
53752;DHT22;41095;53.090;6.692;2022-09-24T17:21:09;13.80;99.90
53752;DHT22;41095;53.090;6.692;2022-09-24T17:23:36;13.80;99.90
53752;DHT22;41095;53.090;6.692;2022-09-24T17:26:10;13.80;99.90
53752;DHT22;41095;53.090;6.692;2022-09-24T17:28:39;13.80;99.90
53752;DHT22;41095;53.090;6.692;2022-09-24T17:31:05;13.80;99.90
53752;DHT22;41095;53.090;6.692;2022-09-24T17:33:31;13.80;99.90
53752;DHT22;41095;53.090;6.692;2022-09-24T17:36:00;13.80;99.90
53752;DHT22;41095;53.090;6.692;2022-09-24T17:38:26;13.80;99.90
53752;DHT22;41095;53.090;6.692;2022-09-24T17:41:03;13.80;99.90
53752;DHT22;41095;53.090;6.692;2022-09-24T17:43:30;13.80;99.90
53752;DHT22;41095;53.090;6.692;2022-09-24T17:46:00;13.80;99.90
53752;DHT22;41095;53.090;6.692;2022-09-24T17:48:31;13.80;99.90